Latest Weather Observations for Cessnock Airport

IDN60801

Issued at 8:03 am EST Tuesday 26 September 2017 (issued every 30 minutes, with the page automatically refreshed every 10 minutes)

About weather observations | Map of weather stations | Latest weather observations for NSW | Other Formats
Station Details ID: 061260 Name: CESSNOCK AIRPORT AWS Lat: -32.79 Lon: 151.34 Height: 61.0 m
Data from the previous 72 hours. | See also: Recent months at Cessnock Airport
Date/Time
EST
Temp
°C
App
Temp
°C
Dew
Point
°C
Rel
Hum
%
Delta-T
°C
Wind Press
QNH
hPa
Press
MSL
hPa
Rain since
9am
mm
Dir  Spd
km/h
Gust
km/h
Spd
kts
Gust
kts
26/08:00am 17.2 14.6 3.1 39 6.5 NNE 6 7 3 4 1016.4 1016.4 0.0
26/07:30am 14.2 12.1 3.7 49 4.8 ENE 4 7 2 4 1016.2 1016.2 0.0
26/07:00am 11.0 9.5 3.1 58 3.4 CALM 0 0 0 0 1015.8 1015.8 0.0
26/06:30am 7.4 5.8 2.7 72 2.0 CALM 0 0 0 0 1015.5 1015.5 0.0
26/06:00am 5.7 4.0 1.6 75 1.6 CALM 0 0 0 0 1015.2 1015.2 0.0
26/05:30am 6.0 2.9 1.5 73 1.8 S 7 15 4 8 1014.8 1014.8 0.0
26/05:00am 6.2 3.2 1.1 70 2.0 WSW 6 9 3 5 1014.2 1014.2 0.0
26/04:30am 7.3 3.0 1.2 65 2.5 WSW 13 15 7 8 1013.8 1013.8 0.0
26/04:00am 8.1 4.2 1.3 62 2.8 WSW 11 15 6 8 1013.4 1013.4 0.0
26/03:30am 8.8 5.0 1.5 60 3.0 SW 11 15 6 8 1012.9 1012.8 0.0
26/03:00am 9.3 5.5 1.5 58 3.2 WSW 11 15 6 8 1012.9 1012.8 0.0
26/02:30am 8.6 5.5 1.1 59 3.1 WSW 7 11 4 6 1012.7 1012.6 0.0
26/02:00am 8.9 6.3 1.1 58 3.2 W 4 9 2 5 1012.8 1012.7 0.0
26/01:30am 10.9 7.3 0.9 50 4.2 WSW 9 17 5 9 1012.8 1012.7 0.0
26/01:00am 11.5 8.4 1.2 49 4.3 WSW 7 11 4 6 1012.9 1012.8 0.0
26/12:30am 12.8 10.5 0.5 43 5.2 WNW 2 6 1 3 1013.1 1013.0 0.0
26/12:00am 14.3 11.4 -0.9 35 6.3 NW 4 7 2 4 1013.3 1013.3 0.0
 
Date/Time
EST
Temp
°C
App
Temp
°C
Dew
Point
°C
Rel
Hum
%
Delta-T
°C
Wind Press
QNH
hPa
Press
MSL
hPa
Rain since
9am
mm
Dir  Spd
km/h
Gust
km/h
Spd
kts
Gust
kts
25/11:30pm 16.1 13.7 -0.6 32 7.1 NW 2 7 1 4 1013.4 1013.4 0.0
25/11:00pm 17.7 14.4 -1.0 28 8.0 SW 6 7 3 4 1012.9 1012.8 0.0
25/10:30pm 18.9 15.4 -1.5 25 8.7 WSW 7 13 4 7 1012.9 1012.8 0.0
25/10:00pm 19.9 15.3 -1.2 24 9.1 WSW 13 20 7 11 1013.0 1012.9 0.0
25/09:30pm 20.3 14.9 -1.5 23 9.4 WSW 17 30 9 16 1012.7 1012.6 0.0
25/09:00pm 20.3 14.2 -2.7 21 9.7 WSW 20 33 11 18 1012.3 1012.2 0.0
25/08:30pm 20.9 14.3 -2.9 20 10.0 WSW 22 33 12 18 1012.0 1011.9 0.0
25/08:00pm 21.1 15.1 -3.4 19 10.2 SW 19 32 10 17 1011.6 1011.5 0.0
25/07:30pm 21.8 15.2 -3.5 18 10.6 WSW 22 32 12 17 1011.2 1011.1 0.0
25/07:00pm 21.3 15.9 -4.7 17 10.6 WSW 15 24 8 13 1010.3 1010.2 0.0
25/06:30pm 22.3 16.8 -5.6 15 11.3 WSW 15 26 8 14 1009.6 1009.5 0.0
25/06:00pm 23.4 16.8 -6.5 13 12.0 WSW 20 35 11 19 1008.9 1008.8 0.0
25/05:30pm 24.2 16.7 -8.1 11 12.7 WSW 24 39 13 21 1008.2 1008.1 0.0
25/05:00pm 24.9 17.9 -7.5 11 13.0 WSW 22 35 12 19 1007.5 1007.4 0.0
25/04:30pm 26.2 20.2 -3.4 14 12.9 NW 19 26 10 14 1006.6 1006.5 0.0
25/04:00pm 27.1 20.5 -7.1 10 14.1 W 20 39 11 21 1006.1 1006.0 0.0
25/03:38pm 27.6 19.5 -6.7 10 14.3 NW 28 46 15 25 1005.8 1005.7 0.0
25/03:30pm 27.8 21.2 -6.6 10 14.4 WNW 20 41 11 22 1005.8 1005.7 0.0
25/03:00pm 27.9 19.0 -5.2 11 14.3 WNW 33 52 18 28 1005.4 1005.4 0.0
25/02:30pm 28.3 20.1 -3.8 12 14.2 WNW 30 59 16 32 1005.1 1005.1 0.0
25/02:28pm 28.3 20.5 -3.8 12 14.2 WNW 28 50 15 27 1004.9 1004.9 0.0
25/02:00pm 28.8 22.2 -3.4 12 14.4 NW 22 37 12 20 1004.8 1004.8 0.0
25/01:30pm 30.1 23.2 -2.4 12 14.9 WNW 24 48 13 26 1004.8 1004.8 0.0
25/01:00pm 31.0 23.3 -2.9 11 15.6 NW 28 44 15 24 1004.4 1004.4 0.0
25/12:55pm 30.9 23.2 -3.0 11 15.5 NW 28 48 15 26 1004.4 1004.4 0.0
25/12:30pm 30.5 23.4 -1.0 13 14.9 NW 26 39 14 21 1004.8 1004.8 0.0
25/12:11pm 29.4 21.7 -2.9 12 14.6 NW 28 46 15 25 1004.8 1004.8 0.0
25/12:00pm 29.5 22.8 -0.8 14 14.3 NNW 24 44 13 24 1005.1 1005.1 0.0
25/11:48am 29.3 21.7 -1.9 13 14.4 NW 28 46 15 25 1005.1 1005.1 0.0
25/11:30am 29.4 22.6 -1.9 13 14.4 NW 24 46 13 25 1005.5 1005.5 0.0
25/11:00am 28.3 20.8 -1.7 14 13.8 NNW 28 41 15 22 1005.8 1005.7 0.0
25/10:30am 28.1 21.4 -0.9 15 13.5 NW 24 39 13 21 1006.5 1006.4 0.0
25/10:00am 27.8 22.3 0.5 17 13.0 WNW 19 30 10 16 1006.8 1006.7 0.0
25/09:30am 26.2 20.8 1.5 20 11.8 NNW 19 32 10 17 1007.4 1007.3 0.0
25/09:00am 24.2 19.8 2.9 25 10.3 N 15 22 8 12 1008.1 1008.0 0.0
25/08:30am 22.1 17.5 3.7 30 8.9 N 17 24 9 13 1008.0 1007.9 0.0
25/08:00am 19.9 17.6 7.3 44 6.5 NNE 9 13 5 7 1007.8 1007.7 0.0
25/07:30am 15.0 14.4 9.1 68 3.0 E 2 7 1 4 1007.6 1007.5 0.0
25/07:00am 11.0 10.4 7.5 79 1.7 CALM 0 0 0 0 1007.4 1007.3 0.0
25/06:30am 10.3 9.6 7.0 80 1.6 CALM 0 0 0 0 1007.1 1007.0 0.0
25/06:00am 8.2 6.4 5.3 82 1.3 W 4 13 2 7 1006.8 1006.7 0.0
25/05:30am 9.0 7.3 5.9 81 1.4 N 4 7 2 4 1006.2 1006.1 0.0
25/05:00am 8.2 5.8 5.3 82 1.3 SW 7 11 4 6 1005.9 1005.8 0.0
25/04:30am 8.8 7.0 5.4 79 1.5 WSW 4 9 2 5 1005.5 1005.5 0.0
25/04:00am 9.8 7.9 6.5 80 1.5 SSW 6 7 3 4 1005.3 1005.3 0.0
25/03:30am 10.7 9.9 6.6 76 1.9 CALM 0 0 0 0 1005.1 1005.1 0.0
25/03:00am 11.4 9.3 6.5 72 2.3 SW 7 9 4 5 1004.9 1004.9 0.0
25/02:30am 13.2 12.5 7.0 66 3.0 CALM 0 0 0 0 1004.9 1004.9 0.0
25/02:00am 13.7 13.0 7.0 64 3.3 CALM 0 0 0 0 1004.3 1004.3 0.0
25/01:30am 13.9 12.0 7.4 65 3.2 S 7 7 4 4 1004.3 1004.3 0.0
25/01:00am 14.0 12.1 6.8 62 3.5 WNW 6 9 3 5 1004.9 1004.9 0.0
25/12:30am 13.7 12.2 6.6 62 3.4 W 4 7 2 4 1004.6 1004.6 0.0
25/12:00am 13.6 12.4 6.5 62 3.4 SW 2 6 1 3 1004.6 1004.6 0.0
 
Date/Time
EST
Temp
°C
App
Temp
°C
Dew
Point
°C
Rel
Hum
%
Delta-T
°C
Wind Press
QNH
hPa
Press
MSL
hPa
Rain since
9am
mm
Dir  Spd
km/h
Gust
km/h
Spd
kts
Gust
kts
24/11:30pm 14.3 12.1 6.4 59 3.8 SW 7 11 4 6 1004.7 1004.7 0.0
24/11:00pm 15.0 12.9 5.8 54 4.4 WSW 6 15 3 8 1004.8 1004.8 0.0
24/10:30pm 14.9 13.8 4.9 51 4.7 CALM 0 6 0 3 1004.9 1004.9 0.0
24/10:00pm 17.6 13.7 5.2 44 6.0 WSW 15 19 8 10 1004.8 1004.8 0.0
24/09:30pm 18.5 17.1 3.6 37 7.0 CALM 0 0 0 0 1004.6 1004.6 0.0
24/09:00pm 21.4 19.4 6.1 37 7.7 NE 6 7 3 4 1004.6 1004.6 0.0
24/08:30pm 23.4 20.6 2.3 25 10.0 WSW 6 9 3 5 1004.1 1004.1 0.0
24/08:00pm 27.1 23.4 0.0 17 12.8 WNW 9 17 5 9 1003.8 1003.8 0.0
24/07:30pm 28.3 23.9 0.1 16 13.4 WNW 13 19 7 10 1003.5 1003.5 0.0
24/07:00pm 29.3 24.1 0.0 15 14.0 WNW 17 28 9 15 1003.2 1003.2 0.0
24/06:30pm 28.9 24.9 0.6 16 13.6 WNW 11 19 6 10 1002.8 1002.8 0.0
24/06:00pm 29.9 24.8 0.5 15 14.2 W 17 30 9 16 1002.4 1002.4 0.0
24/05:30pm 30.4 25.2 -0.1 14 14.6 WNW 17 24 9 13 1002.1 1002.1 0.0
24/05:00pm 31.3 25.1 -0.4 13 15.3 NW 22 39 12 21 1001.7 1001.7 0.0
24/04:53pm 31.3 26.0 -0.4 13 15.2 WNW 17 39 9 21 1001.6 1001.6 0.0
24/04:30pm 30.8 26.8 0.2 14 14.8 NW 11 15 6 8 1001.4 1001.4 0.0
24/04:00pm 31.9 26.1 0.1 13 15.5 NW 20 41 11 22 1001.3 1001.3 0.0
24/03:30pm 31.9 25.4 0.1 13 15.4 NW 24 43 13 23 1001.3 1001.3 0.0
24/03:00pm 33.0 26.6 0.9 13 16.0 WNW 24 35 13 19 1001.1 1001.1 0.0
24/02:30pm 33.1 26.3 1.0 13 16.0 WNW 26 39 14 21 1001.1 1001.1 0.0
24/02:00pm 33.1 26.5 2.1 14 15.8 NW 26 37 14 20 1001.2 1001.2 0.0
24/01:30pm 33.6 27.7 1.4 13 16.2 NW 22 39 12 21 1001.8 1001.8 0.0
24/01:01pm 33.0 26.0 2.0 14 15.7 NW 28 46 15 25 1002.2 1002.2 0.0
24/01:00pm 33.0 26.4 2.0 14 15.7 NW 26 46 14 25 1002.2 1002.2 0.0
24/12:57pm 33.0 25.8 0.9 13 15.9 NW 28 46 15 25 1002.1 1002.1 0.0
24/12:30pm 33.2 26.8 3.1 15 15.5 NW 26 46 14 25 1002.1 1002.1 0.0
24/12:00pm 33.4 27.4 3.3 15 15.6 NNW 24 43 13 23 1002.4 1002.4 0.0
24/11:30am 32.9 26.4 2.9 15 15.4 NNW 26 41 14 22 1002.4 1002.4 0.0
24/11:00am 33.2 26.2 4.0 16 15.3 NW 30 54 16 29 1003.1 1003.1 0.0
24/10:30am 32.2 25.2 4.1 17 14.6 WNW 30 50 16 27 1003.2 1003.2 0.0
24/10:02am 31.7 25.0 3.7 17 14.4 NW 28 46 15 25 1003.0 1003.0 0.0
24/10:00am 31.9 25.2 3.8 17 14.6 NW 28 41 15 22 1003.1 1003.1 0.0
24/09:30am 32.0 24.8 3.1 16 14.8 NNW 30 48 16 26 1002.6 1002.6 0.0
24/09:25am 32.2 25.2 4.1 17 14.6 NNW 30 48 16 26 1002.6 1002.6 0.0
24/09:00am 31.4 25.6 4.2 18 14.2 NNW 24 39 13 21 1002.4 1002.4 0.0
24/08:30am 30.3 24.6 4.9 20 13.2 NNW 24 43 13 23 1002.9 1002.9 0.0
24/08:25am 29.6 23.0 4.3 20 13.0 NNW 28 46 15 25 1002.8 1002.8 0.0
24/08:00am 29.5 24.6 4.9 21 12.8 NW 20 35 11 19 1003.3 1003.3 0.0
24/07:37am 30.1 23.2 4.7 20 13.2 NW 30 50 16 27 1004.3 1004.3 0.0
24/07:30am 29.7 23.1 4.4 20 13.0 NW 28 44 15 24 1003.7 1003.7 0.0
24/07:00am 29.1 23.2 3.9 20 12.9 WNW 24 37 13 20 1003.1 1003.1 0.0
24/06:30am 28.1 22.8 3.0 20 12.5 NW 20 32 11 17 1002.5 1002.5 0.0
24/06:00am 28.3 22.5 2.5 19 12.8 NW 22 37 12 20 1001.8 1001.8 0.0
24/05:30am 28.4 23.0 2.6 19 12.8 WNW 20 30 11 16 1002.1 1002.1 0.0
24/05:00am 28.4 23.5 1.8 18 13.1 WNW 17 28 9 15 1001.0 1001.0 0.0
24/04:30am 29.3 23.8 1.7 17 13.5 NW 20 33 11 18 1000.6 1000.6 0.0
24/04:00am 30.8 24.3 0.2 14 14.9 NW 24 41 13 22 1000.7 1000.7 0.0
24/03:30am 31.2 23.6 0.6 14 14.9 NW 30 56 16 30 1001.1 1001.1 0.0
24/03:27am 31.1 23.9 0.5 14 14.9 NW 28 46 15 25 1001.1 1001.1 0.0
24/03:00am 29.3 23.8 1.7 17 13.6 NW 20 39 11 21 1000.1 1000.1 0.0
24/02:30am 29.0 24.0 1.5 17 13.4 NW 17 35 9 19 999.8 999.8 0.0
24/02:00am 28.9 24.3 1.4 17 13.5 WNW 15 28 8 15 1000.4 1000.4 0.0
24/01:30am 29.9 24.5 1.4 16 14.0 NW 19 30 10 16 1000.3 1000.3 0.0
24/01:05am 27.5 23.4 4.5 23 11.7 NNW 15 26 8 14 1001.0 1001.0 0.0
24/01:00am 22.1 19.1 5.9 35 8.2 NW 11 20 6 11 1001.0 1001.0 0.0
24/12:57am 22.8 20.3 6.6 35 8.3 NW 9 20 5 11 1001.4 1001.4 0.0
24/12:30am 16.6 13.8 5.3 47 5.4 N 9 11 5 6 1001.4 1001.4 0.0
24/12:00am 15.1 13.4 5.9 54 4.4 WNW 4 7 2 4 1002.1 1002.1 0.0
 
Date/Time
EST
Temp
°C
App
Temp
°C
Dew
Point
°C
Rel
Hum
%
Delta-T
°C
Wind Press
QNH
hPa
Press
MSL
hPa
Rain since
9am
mm
Dir  Spd
km/h
Gust
km/h
Spd
kts
Gust
kts
23/11:30pm 16.6 13.8 7.0 53 4.8 N 11 17 6 9 1002.2 1002.2 0.0
23/11:00pm 14.9 14.0 6.2 56 4.2 CALM 0 0 0 0 1002.9 1002.9 0.0
23/10:30pm 15.1 14.2 5.9 54 4.4 CALM 0 6 0 3 1002.6 1002.6 0.0
23/10:00pm 16.7 15.8 5.9 49 5.3 CALM 0 6 0 3 1002.6 1002.6 0.0
23/09:30pm 17.9 16.4 5.2 43 6.1 WSW 2 7 1 4 1002.9 1002.9 0.0
23/09:00pm 18.7 17.6 5.2 41 6.6 CALM 0 0 0 0 1003.0 1003.0 0.0
23/08:30pm 19.1 17.0 4.1 37 7.2 WNW 4 9 2 5 1003.0 1003.0 0.0
23/08:00pm 21.1 18.2 4.6 34 8.1 NNW 9 11 5 6 1002.9 1002.9 0.0
23/07:30pm 21.3 18.3 4.0 32 8.4 NW 9 11 5 6 1003.0 1003.0 0.0
23/07:00pm 22.6 19.8 3.2 28 9.4 NNW 7 9 4 5 1002.9 1002.9 0.0
23/06:30pm 24.6 21.5 1.5 22 10.9 WNW 7 9 4 5 1002.9 1002.9 0.0
23/06:27pm 25.3 22.4 1.4 21 11.3 NW 6 9 3 5 1002.9 1002.9 0.0
23/06:00pm 30.3 26.2 -0.1 14 14.6 N 11 15 6 8 1002.7 1002.7 0.0
23/05:30pm 32.6 27.3 -0.5 12 16.0 N 17 24 9 13 1002.7 1002.7 0.0
23/05:00pm 33.7 28.0 -0.8 11 16.8 N 19 30 10 16 1002.6 1002.6 0.0
23/04:30pm 34.2 27.8 -1.7 10 17.2 NNW 22 37 12 20 1002.8 1002.8 0.0
23/04:00pm 34.5 27.9 -0.2 11 17.1 NW 24 43 13 23 1002.7 1002.7 0.0
23/03:30pm 35.2 27.8 -1.0 10 17.7 NW 28 50 15 27 1002.9 1002.9 0.0
23/03:08pm 35.0 27.5 -1.1 10 17.6 NNW 28 46 15 25 1002.9 1002.9 0.0
23/03:00pm 35.1 28.4 -1.1 10 17.7 NNW 24 37 13 20 1002.9 1002.9 0.0
23/02:50pm 34.7 27.2 -1.4 10 17.4 NNW 28 48 15 26 1002.9 1002.9 0.0
23/02:30pm 35.6 29.9 -0.7 10 17.8 N 19 33 10 18 1003.0 1003.0 0.0
23/02:00pm 33.5 28.6 4.2 16 15.4 NNE 19 22 10 12 1003.9 1003.9 0.0
23/01:30pm 31.9 28.2 4.6 18 14.3 NNE 13 19 7 10 1004.8 1004.8 0.0
23/01:00pm 31.2 27.6 4.9 19 13.8 NNE 13 17 7 9 1005.4 1005.4 0.0
23/12:30pm 29.2 25.1 4.6 21 12.7 NNE 15 19 8 10 1006.3 1006.2 0.0
23/12:00pm 29.4 26.3 5.5 22 12.6 NNE 11 15 6 8 1007.0 1006.9 0.0
23/11:53am 28.7 26.0 7.3 26 11.5 NNE 11 13 6 7 1007.1 1007.0 0.0
23/11:30am 23.5 21.7 7.2 35 8.5 ESE 6 7 3 4 1007.7 1007.6 0.0
23/11:00am 22.1 20.0 6.7 37 7.9 SE 7 9 4 5 1008.6 1008.5 0.0
23/10:30am 21.2 18.5 5.6 36 7.8 SE 9 15 5 8 1009.2 1009.1 0.0
23/10:00am 20.6 17.9 5.8 38 7.4 SE 9 15 5 8 1009.8 1009.7 0.0
23/09:30am 18.8 16.8 6.9 46 6.0 ESE 7 11 4 6 1010.3 1010.2 0.0
23/09:00am 16.6 14.1 6.4 51 5.0 SE 9 11 5 6 1010.7 1010.6 0.0
23/08:30am 14.6 13.6 7.2 61 3.6 NE 2 7 1 4 1011.1 1011.0 0.0

Other Formats:

Comma delimited format used in spreadsheet applications
http://www.bom.gov.au/fwo/IDN60801/IDN60801.95771.axf

JavaScript Object Notation format (JSON) in row-major order
http://www.bom.gov.au/fwo/IDN60801/IDN60801.95771.json